Wednesday, November 14, 2018, 9:52 PM EST
Back to Local

KNUI, Knui Webster Field Annex

Location: Saint Inigoes, MD, United States Lat: 38.15
Local Time: 9:52 PM EST ( 2:52 GMT) Lon: -76.417
Time Zone: US/Eastern Elev: 19 ft

Show me the last for .
Show Decoded

2018-11-14 20:53 METAR KNUI 150153Z AUTO 04005KT 10SM CLR 06/M04 A3050 RMK AO2 SLP329 T00561039 $
                 =
2018-11-14 19:53 METAR KNUI 150053Z AUTO 03008KT 10SM CLR 06/M04 A3050 RMK AO2 SLP327 T00561044 $
                 =
2018-11-14 18:53 METAR KNUI 142353Z AUTO 00000KT 10SM CLR 05/M02 A3048 RMK AO2 SLP321 T00501022
                 10072 20044 53003 $ =
2018-11-14 17:53 METAR KNUI 142253Z AUTO 00000KT 10SM CLR 06/M04 A3047 RMK AO2 SLP316 T00561039 $
                 =
2018-11-14 16:53 METAR KNUI 142153Z AUTO 00000KT 10SM CLR 06/M04 A3048 RMK AO2 SLP319 T00561039 $
                 =
2018-11-14 15:53 METAR KNUI 142053Z AUTO VRB04KT 10SM CLR 06/M05 A3047 RMK AO2 SLP318 T00611050
                 53007 $ =
2018-11-14 14:53 METAR KNUI 141953Z AUTO VRB06KT 10SM CLR 07/M05 A3046 RMK AO2 SLP312 T00671050 $
                 =
2018-11-14 13:53 METAR KNUI 141853Z AUTO VRB06KT 10SM CLR 07/M05 A3045 RMK AO2 SLP311 T00671050 $
                 =
2018-11-14 12:53 METAR KNUI 141753Z AUTO 33007KT 300V010 10SM CLR 07/M05 A3045 RMK AO2 SLP311
                 T00721050 10072 20050 58004 $ =
2018-11-14 11:53 METAR KNUI 141653Z AUTO 34008KT 10SM CLR 07/M05 A3046 RMK AO2 SLP314 T00671050 =
2018-11-14 10:53 METAR KNUI 141553Z AUTO 10SM CLR 06/M06 A3047 RMK AO2 SLP316 T00611056 TSNO $ =
2018-11-14 09:53 METAR KNUI 141453Z AUTO 10SM CLR 06/M05 A3047 RMK AO2 SLP316 T00561050 51024
                 TSNO $ =
2018-11-14 08:53 METAR KNUI 141353Z AUTO 33004KT 10SM CLR 05/M06 A3045 RMK AO2 SLP312 T00501056 =
2018-11-14 07:53 METAR KNUI 141253Z AUTO VRB04KT 10SM CLR 05/M05 A3043 RMK AO2 SLP305 T00501050 =
2018-11-14 06:53 METAR KNUI 141153Z AUTO VRB06KT 10SM CLR 06/M04 A3040 RMK AO2 SLP292 T00561044
                 10078 20056 51030 =
2018-11-14 05:53 METAR KNUI 141053Z AUTO VRB03KT 10SM CLR 06/M01 A3036 RMK AO2 SLP281 T00561011 =
2018-11-14 04:53 METAR KNUI 140953Z AUTO 30007KT 10SM CLR 06/M02 A3034 RMK AO2 SLP273 T00611022 =
2018-11-14 03:53 METAR KNUI 140853Z AUTO 34004KT 10SM CLR 07/M01 A3031 RMK AO2 SLP262 T00671006
                 53017 =
2018-11-14 02:53 METAR KNUI 140753Z AUTO 30008KT 10SM CLR 07/02 A3029 RMK AO2 SLP255 T00720017 =
2018-11-14 01:53 METAR KNUI 140653Z AUTO 31007KT 10SM SCT039 07/02 A3027 RMK AO2 SLP250 T00720017
                 =
2018-11-14 00:53 METAR KNUI 140553Z AUTO 31007KT 10SM CLR 08/02 A3026 RMK AO2 SLP245 T00780017
                 10094 20078 51009 =
2018-11-13 23:53 METAR KNUI 140453Z AUTO VRB06KT 10SM CLR 08/02 A3025 RMK AO2 SLP242 T00780022
                 401610078 =
2018-11-13 22:53 METAR KNUI 140353Z AUTO 28004KT 10SM CLR 08/03 A3024 RMK AO2 SLP240 T00780028 =
2018-11-13 21:53 METAR KNUI 140253Z AUTO 32005KT 10SM CLR 08/02 A3023 RMK AO2 SLP236 T00830017
                 51027 =

Support USWX by starting your Amazon purchase here.